createdAt,value
2022-08-05T00:06:03.119Z,100.00
2022-08-05T00:11:30.172Z,100.00
2022-08-05T00:17:01.986Z,100.00
2022-08-05T00:22:32.010Z,100.00
2022-08-05T00:28:02.484Z,100.00
2022-08-05T00:34:55.196Z,100.00
2022-08-05T00:39:19.772Z,100.00
2022-08-05T00:44:50.397Z,100.00
2022-08-05T00:50:20.866Z,100.00
2022-08-05T00:55:50.814Z,100.00
2022-08-05T01:01:24.683Z,100.00
2022-08-05T01:07:13.616Z,100.00
2022-08-05T01:13:05.018Z,100.00
2022-08-05T01:18:47.965Z,100.00
2022-08-05T01:24:42.864Z,100.00
2022-08-05T01:30:19.141Z,100.00
2022-08-05T01:36:13.099Z,100.00
2022-08-05T01:41:47.645Z,100.00
2022-08-05T01:47:21.180Z,100.00
2022-08-05T01:52:54.115Z,100.00
2022-08-05T01:58:30.046Z,100.00
2022-08-05T02:04:13.036Z,100.00
2022-08-05T02:09:42.250Z,100.00
2022-08-05T02:15:23.374Z,100.00
2022-08-05T02:20:58.775Z,100.00
2022-08-05T02:26:36.571Z,100.00
2022-08-05T02:32:10.720Z,100.00
2022-08-05T02:37:46.553Z,100.00
2022-08-05T02:43:24.109Z,100.00
2022-08-05T02:48:54.615Z,100.00
2022-08-05T02:54:35.828Z,100.00
2022-08-05T03:00:07.640Z,100.00
2022-08-05T03:06:55.041Z,100.00
2022-08-05T03:11:54.565Z,100.00
2022-08-05T03:17:20.363Z,100.00
2022-08-05T03:22:51.005Z,100.00
2022-08-05T03:28:21.814Z,100.00
2022-08-05T03:33:53.151Z,100.00
2022-08-05T03:39:27.092Z,100.00
2022-08-05T03:44:58.295Z,100.00
2022-08-05T03:50:30.326Z,100.00
2022-08-05T03:56:12.127Z,100.00
2022-08-05T04:01:49.200Z,100.00
2022-08-05T04:07:19.296Z,100.00
2022-08-05T04:12:53.805Z,100.00
2022-08-05T04:18:25.963Z,100.00
2022-08-05T04:24:05.783Z,100.00
2022-08-05T04:29:35.851Z,100.00
2022-08-05T04:35:17.342Z,100.00
2022-08-05T04:40:50.860Z,100.00
2022-08-05T04:46:27.763Z,100.00
2022-08-05T04:52:00.505Z,100.00
2022-08-05T04:57:29.865Z,100.00
2022-08-05T05:03:08.991Z,100.00
2022-08-05T05:08:42.800Z,100.00
2022-08-05T05:14:16.149Z,100.00
2022-08-05T05:19:47.587Z,100.00
2022-08-05T05:25:18.123Z,100.00
2022-08-05T05:30:49.734Z,100.00
2022-08-05T05:36:18.671Z,100.00
2022-08-05T05:41:54.251Z,100.00
2022-08-05T05:47:23.604Z,100.00
2022-08-05T05:52:59.869Z,100.00
2022-08-05T05:58:32.226Z,100.00
2022-08-05T06:04:03.835Z,100.00
2022-08-05T06:10:01.599Z,100.00
2022-08-05T06:15:24.094Z,100.00
2022-08-05T06:20:54.273Z,100.00
2022-08-05T06:26:23.935Z,100.00
2022-08-05T06:31:55.113Z,100.00
2022-08-05T06:37:39.462Z,97.84
2022-08-05T06:43:51.710Z,90.83
2022-08-05T06:49:08.455Z,81.62
2022-08-05T06:54:38.402Z,70.34
2022-08-05T07:00:09.873Z,65.87
2022-08-05T07:05:41.122Z,65.84
2022-08-05T07:11:15.490Z,61.66
2022-08-05T07:17:59.112Z,61.44
2022-08-05T07:22:41.988Z,57.43
2022-08-05T07:28:17.384Z,51.44
2022-08-05T07:33:46.996Z,52.95
2022-08-05T07:39:24.888Z,50.80
2022-08-05T07:45:09.294Z,48.27
2022-08-05T07:50:39.590Z,46.72
2022-08-05T07:57:00.516Z,47.04
2022-08-05T08:02:03.053Z,52.55
2022-08-05T08:07:39.786Z,58.33
2022-08-05T08:13:29.304Z,75.51
2022-08-05T08:18:58.545Z,100.00
2022-08-05T08:24:51.034Z,100.00
2022-08-05T08:30:32.560Z,100.00
2022-08-05T08:36:39.009Z,100.00
2022-08-05T08:42:00.192Z,87.98
2022-08-05T08:48:05.437Z,64.89
2022-08-05T08:53:24.254Z,59.55
2022-08-05T08:58:54.290Z,58.42
2022-08-05T09:04:30.281Z,53.26
2022-08-05T09:09:59.683Z,51.97
2022-08-05T09:15:28.682Z,46.92
2022-08-05T09:21:01.090Z,45.46
2022-08-05T09:26:30.107Z,45.43
2022-08-05T09:32:51.325Z,43.32
2022-08-05T09:38:12.808Z,43.10
2022-08-05T09:43:46.580Z,45.87
2022-08-05T09:49:40.327Z,48.51
2022-08-05T09:55:57.087Z,48.75
2022-08-05T10:01:13.276Z,48.21
2022-08-05T10:06:55.115Z,45.79
2022-08-05T10:12:33.857Z,48.90
2022-08-05T10:18:11.947Z,52.63
2022-08-05T10:23:55.621Z,58.33
2022-08-05T10:30:06.693Z,76.24
2022-08-05T10:35:22.620Z,94.20
2022-08-05T10:41:09.911Z,86.90
2022-08-05T10:46:46.280Z,87.01
2022-08-05T10:52:39.359Z,89.91
2022-08-05T10:58:20.626Z,99.71
2022-08-05T11:04:08.576Z,100.00
2022-08-05T11:09:46.086Z,100.00
2022-08-05T11:15:21.914Z,100.00
2022-08-05T11:20:54.078Z,100.00
2022-08-05T11:26:28.361Z,100.00
2022-08-05T11:32:25.884Z,100.00
2022-08-05T11:38:36.776Z,100.00
2022-08-05T11:44:05.846Z,100.00
2022-08-05T11:49:35.810Z,100.00
2022-08-05T11:55:10.708Z,100.00
2022-08-05T12:00:44.225Z,100.00
2022-08-05T12:06:17.446Z,100.00
2022-08-05T12:11:51.113Z,99.54
2022-08-05T12:18:04.242Z,100.00
2022-08-05T12:23:11.426Z,100.00
2022-08-05T12:28:42.420Z,100.00
2022-08-05T12:34:21.541Z,100.00
2022-08-05T12:39:54.006Z,100.00
2022-08-05T12:45:42.456Z,100.00
2022-08-05T12:52:10.378Z,100.00
2022-08-05T12:57:09.477Z,100.00
2022-08-05T13:02:40.838Z,100.00
2022-08-05T13:08:10.167Z,100.00
2022-08-05T13:14:05.434Z,100.00
2022-08-05T13:19:51.857Z,100.00
2022-08-05T13:25:22.143Z,100.00
2022-08-05T13:31:14.007Z,100.00
2022-08-05T13:36:45.303Z,100.00
2022-08-05T13:42:15.357Z,100.00
2022-08-05T13:48:09.954Z,100.00
2022-08-05T13:53:48.035Z,100.00
2022-08-05T13:59:20.289Z,100.00
2022-08-05T14:05:11.757Z,100.00
2022-08-05T14:10:44.831Z,99.89
2022-08-05T14:16:17.045Z,100.00
2022-08-05T14:22:08.878Z,100.00
2022-08-05T14:27:47.366Z,100.00
2022-08-05T14:33:22.655Z,100.00
2022-08-05T14:38:54.195Z,97.00
2022-08-05T14:44:25.256Z,95.93
2022-08-05T14:50:06.679Z,90.21
2022-08-05T14:55:43.706Z,99.19
2022-08-05T15:01:47.614Z,100.00
2022-08-05T15:08:05.528Z,100.00
2022-08-05T15:13:05.561Z,100.00
2022-08-05T15:18:47.093Z,100.00
2022-08-05T15:24:17.514Z,100.00
2022-08-05T15:29:49.027Z,100.00
2022-08-05T15:35:19.295Z,100.00
2022-08-05T15:41:20.986Z,100.00
2022-08-05T15:46:39.647Z,100.00
2022-08-05T15:52:16.437Z,100.00
2022-08-05T15:57:49.061Z,100.00
2022-08-05T16:03:18.996Z,100.00
2022-08-05T16:08:55.214Z,100.00
2022-08-05T16:14:25.096Z,100.00
2022-08-05T16:20:05.500Z,100.00
2022-08-05T16:25:42.723Z,100.00
2022-08-05T16:31:14.267Z,100.00
2022-08-05T16:36:43.763Z,100.00
2022-08-05T16:42:18.498Z,100.00
2022-08-05T16:47:54.213Z,100.00
2022-08-05T16:54:02.082Z,100.00
2022-08-05T16:59:16.847Z,100.00
2022-08-05T17:04:45.483Z,100.00
2022-08-05T17:10:15.836Z,100.00
2022-08-05T17:15:47.956Z,100.00
2022-08-05T17:21:23.495Z,100.00
2022-08-05T17:26:52.863Z,100.00
2022-08-05T17:32:22.959Z,100.00
2022-08-05T17:38:00.666Z,100.00
2022-08-05T17:43:50.487Z,100.00
2022-08-05T17:49:23.885Z,100.00
2022-08-05T17:54:55.489Z,100.00
2022-08-05T18:00:28.652Z,100.00
2022-08-05T18:06:04.005Z,100.00
2022-08-05T18:11:33.995Z,100.00
2022-08-05T18:17:05.812Z,100.00
2022-08-05T18:22:57.237Z,100.00
2022-08-05T18:28:28.368Z,100.00
2022-08-05T18:33:57.577Z,100.00
2022-08-05T18:40:29.629Z,100.00
2022-08-05T18:45:17.552Z,100.00
2022-08-05T18:52:04.500Z,100.00
2022-08-05T18:56:54.808Z,100.00
2022-08-05T19:02:27.877Z,100.00
2022-08-05T19:08:00.254Z,100.00
2022-08-05T19:13:35.517Z,100.00
2022-08-05T19:19:05.813Z,100.00
2022-08-05T19:24:38.641Z,100.00
2022-08-05T19:30:24.965Z,100.00
2022-08-05T19:35:56.548Z,100.00
2022-08-05T19:42:03.360Z,100.00
2022-08-05T19:47:17.150Z,100.00
2022-08-05T19:52:47.805Z,100.00
2022-08-05T19:58:28.374Z,100.00
2022-08-05T20:04:00.455Z,100.00
2022-08-05T20:09:53.741Z,100.00
2022-08-05T20:15:51.647Z,100.00
2022-08-05T20:21:13.820Z,100.00
2022-08-05T20:26:43.147Z,100.00
2022-08-05T20:32:12.381Z,100.00
2022-08-05T20:38:05.985Z,100.00
2022-08-05T20:43:57.707Z,100.00
2022-08-05T20:49:24.529Z,100.00
2022-08-05T20:54:59.832Z,100.00
2022-08-05T21:00:54.511Z,100.00
2022-08-05T21:06:28.535Z,100.00
2022-08-05T21:12:10.242Z,100.00
2022-08-05T21:17:40.914Z,100.00
2022-08-05T21:23:12.815Z,100.00
2022-08-05T21:28:47.623Z,100.00
2022-08-05T21:34:20.469Z,100.00
2022-08-05T21:39:51.491Z,100.00
2022-08-05T21:45:24.482Z,100.00
2022-08-05T21:50:55.651Z,100.00
2022-08-05T21:56:26.902Z,100.00
2022-08-05T22:01:56.892Z,100.00
2022-08-05T22:07:54.461Z,100.00
2022-08-05T22:14:32.955Z,100.00
2022-08-05T22:19:15.065Z,100.00
2022-08-05T22:25:20.897Z,100.00
2022-08-05T22:30:57.906Z,100.00
2022-08-05T22:36:31.046Z,100.00
2022-08-05T22:42:11.313Z,100.00
2022-08-05T22:47:49.855Z,100.00
2022-08-05T22:53:25.617Z,100.00
2022-08-05T22:59:43.622Z,100.00
2022-08-05T23:04:53.602Z,100.00
2022-08-05T23:10:25.673Z,100.00
2022-08-05T23:15:54.315Z,100.00
2022-08-05T23:21:24.128Z,100.00
2022-08-05T23:27:12.585Z,100.00
2022-08-05T23:32:45.238Z,100.00
2022-08-05T23:38:14.774Z,100.00
2022-08-05T23:44:06.347Z,100.00
2022-08-05T23:49:37.253Z,100.00
2022-08-05T23:55:10.048Z,100.00
